Airport Name : Lifou

Other Name : Lifou

ICAO : NWWL

IATA : LIF

FAA :

Latitude : -20.7748

Longitude : 167.239864

Country : New Caledonia

Local Date and Time : 16 Jul 2024 05:52

 

TAF (Terminal Aerodrome Forecast)

TAF NWWL 151700Z 1518/1618 VRB02KT 9999 FEW025 BKN055 PROB40 TEMPO 1518/1520 2000 BR PROB30 TEMPO 1600/1606 SHRA TEMPO 1612/1618 2000 BR

 

METAR (METeorological Aerodrome Report)